Hilldale, Tennessee
Current Conditions -  °F | °C
As of 11:29 PM on Friday 24 Oct 2014 (Local Time) from KCKV Reporting Station
Haze Haze  
Wind Chill: 48°   Ceiling: Unl
Heat Index: 48°   Visibility: 1.7mi
Dew Point: 47°   Wind: 0mph
Humidity: 96%   Direction: NA
Pressure: 30.08"   Gusts: NA
Location:  36.4964°N, 87.234°W
Report Text: KCKV 250429Z AUTO 00000KT 1 3/4SM BR CLR 09/08 A3008 RMK AO2 T00890083
Loading
Personal Weather Stations






























Interactive Weather Map
Tropical Storm Tracking
New forecast layout! Learn more

10-Day Weather Forecast

Advertisements
Track Severe Weather on mobile